Home > Products > Valid Products > TAF

000
FTUS45 KPIH 261900 AAA
TAFBYI
TAF AMD
KBYI 261927Z 2619/2718 07012KT P6SM FEW004
     FM270500 08010KT P6SM SCT010=



000
FTUS45 KPIH 261900 AAB
TAFPIH
TAF AMD
KPIH 261900Z 2619/2718 05006KT P6SM SCT002
      TEMPO 2619/2620 2SM BR BKN002
     FM270300 VRB05KT 4SM BR BKN004
     FM270800 16006KT P6SM SCT004=



000
FTUS45 KPIH 261700 AAA
TAFPIH
TAF AMD
KPIH 261723Z 2617/2718 05004KT 2SM BR OVC002
      TEMPO 2617/2619 3/4SM BR OVC002
     FM261900 05006KT P6SM SCT002
     FM270300 VRB05KT 4SM BR BKN004
     FM270800 16006KT P6SM SCT004=



000
FTUS45 KPIH 261700
TAFSUN
TAF
KSUN 261720Z 2618/2718 15007KT P6SM SKC
     FM270300 33010KT P6SM SKC=



000
FTUS45 KPIH 261700
TAFBYI
TAF
KBYI 261720Z 2618/2718 06010KT 2SM BR OVC002
     FM262000 07010KT P6SM SCT002 BKN010
     FM270500 08010KT P6SM SCT010=



000
FTUS45 KPIH 261700
TAFPIH
TAF
KPIH 261720Z 2618/2718 05004KT 2SM BR OVC002
      TEMPO 2618/2619 3/4SM BR OVC002
     FM261900 05006KT P6SM SCT002
     FM270300 VRB05KT 4SM BR BKN004
     FM270800 16006KT P6SM SCT004=



000
FTUS45 KPIH 261700
TAFIDA
TAF
KIDA 261720Z 2618/2718 36006KT P6SM SKC
     FM270400 35004KT 2SM BR OVC004=



000
FTUS45 KPIH 261700 AAB
TAFBYI
TAF AMD
KBYI 261702Z 2617/2712 06010KT 2SM BR OVC002
     FM262000 07015KT P6SM SCT007=



000
FTUS45 KPIH 261500 AAC
TAFIDA
TAF AMD
KIDA 261556Z 2616/2712 36006KT P6SM FEW002
     FM270400 35004KT 2SM BR OVC004=



000
FTUS45 KPIH 261500 AAA
TAFPIH
TAF AMD
KPIH 261554Z 2616/2712 05006KT 1/4SM FZFG VV002
     FM261800 04004KT 1SM BR OVC004
     FM262000 05006KT P6SM FEW004 SCT140
     FM270300 05006KT 4SM BR BKN004
     FM270800 16006KT P6SM SCT025=



000
FTUS45 KPIH 261400 AAA
TAFBYI
TAF AMD
KBYI 261455Z 2615/2712 06010KT 2SM BR OVC002
     FM261700 07015KT P6SM SCT007=



000
FTUS45 KPIH 261400 AAB
TAFIDA
TAF AMD
KIDA 261453Z 2615/2712 VRB04KT 6SM BR SCT002
     FM261600 02005KT 1SM BR BKN003 OVC008
     FM261800 02005KT 3SM BR SCT004 BKN008
     FM262000 01005KT P6SM SCT008 SCT140
     FM270400 35004KT 2SM BR OVC004=



000
FTUS45 KPIH 261300 AAA
TAFIDA
TAF AMD
KIDA 261316Z 2613/2712 VRB04KT 6SM BR SCT002
      TEMPO 2613/2616 1SM BR BKN002
     FM261600 02005KT 1SM BR BKN003 OVC008
     FM261800 02005KT 3SM BR SCT004 BKN008
     FM262000 01005KT P6SM SCT008 SCT140
     FM270400 35004KT 2SM BR OVC004=



000
FTUS45 KPIH 261100
TAFSUN
TAF
KSUN 261132Z 2612/2712 31010KT P6SM SCT200
     FM261800 15007KT P6SM FEW200
     FM270300 31006KT P6SM SKC
      AMD LTD TO CLD VIS AND WIND TIL 261400=



000
FTUS45 KPIH 261100
TAFIDA
TAF
KIDA 261132Z 2612/2712 36005KT 1/4SM FZFG VV002
     FM261600 02005KT 1SM BR BKN003 OVC008
     FM261800 02005KT 3SM BR SCT004 BKN008
     FM262000 01005KT P6SM SCT008 SCT140
     FM270400 35004KT 2SM BR OVC004=



000
FTUS45 KPIH 261100
TAFPIH
TAF
KPIH 261132Z 2612/2712 05005KT 1/4SM FZFG VV002
     FM261600 04004KT 1SM BR OVC004
     FM262000 05006KT P6SM FEW004 SCT140
     FM270300 05006KT 4SM BR BKN004
     FM270800 16006KT P6SM SCT025=



000
FTUS45 KPIH 261100
TAFBYI
TAF
KBYI 261132Z 2612/2712 06013KT 1/2SM FZFG VV002
      TEMPO 2612/2615 1SM BR VV003
     FM261500 06010KT 3SM BR BKN004
     FM261600 07015KT P6SM SCT007=



000
FTUS45 KPIH 261100 AAB
TAFIDA
TAF AMD
KIDA 261108Z 2611/2706 36005KT 1/4SM FZFG VV002
     FM261600 02005KT 1SM BR SCT004 OVC008
     FM262000 01005KT P6SM SCT008 SCT140=



000
FTUS45 KPIH 260500 AAA
TAFIDA
TAF AMD
KIDA 260547Z 2606/2706 36005KT 1/2SM FZFG VV002
     FM261600 02005KT 1SM BR SCT004 OVC008
     FM262000 01005KT P6SM SCT008 SCT140=



000
FTUS45 KPIH 260500
TAFSUN
TAF
KSUN 260523Z 2606/2706 31010KT P6SM SCT200
     FM261800 15007KT P6SM FEW200
     FM270300 30006KT P6SM SKC
      AMD LTD TO CLD VIS AND WIND TIL 261400=



000
FTUS45 KPIH 260500
TAFBYI
TAF
KBYI 260523Z 2606/2706 06013KT P6SM OVC004
     FM261900 07015KT P6SM SCT007=



000
FTUS45 KPIH 260500
TAFPIH
TAF
KPIH 260523Z 2606/2706 05005KT 1/4SM FZFG VV002
     FM261600 04004KT 1SM BR OVC004
     FM262000 05006KT P6SM FEW004 SCT140=



000
FTUS45 KPIH 260500
TAFIDA
TAF
KIDA 260523Z 2606/2706 36005KT 1/4SM FZFG VV002
     FM261600 02005KT 1SM BR SCT004 OVC008
     FM262000 01005KT P6SM SCT008 SCT140=



000
FTUS45 KPIH 260400 AAB
TAFBYI
TAF AMD
KBYI 260420Z 2604/2624 06013KT P6SM BKN005
     FM261800 07015KT P6SM SCT007=



000
FTUS45 KPIH 260400 AAA
TAFBYI
TAF AMD
KBYI 260419Z 2604/2624 06015KT P6SM SCT005
     FM260500 06013KT P6SM BKN005
     FM261800 07015KT P6SM SCT007=



000
FTUS45 KPIH 260400 AAB
TAFIDA
TAF AMD
KIDA 260415Z 2604/2624 36005KT 1/2SM FZFG VV002
     FM261500 02005KT 6SM BR SCT004 OVC008
     FM261800 01005KT P6SM SCT008 SCT140=



000
FTUS45 KPIH 260300 AAA
TAFIDA
TAF AMD
KIDA 260320Z 2603/2624 36005KT 6SM BR SCT002
     FM260600 02005KT 6SM BR SCT004 OVC008
     FM261500 01005KT P6SM SCT008 SCT140=



000
FTUS45 KPIH 260300 AAB
TAFPIH
TAF AMD
KPIH 260319Z 2603/2624 05005KT 1/2SM FZFG OVC002
     FM261200 04004KT 2SM BR OVC004
     FM261600 05005KT P6SM FEW004 SCT140=



000
FTUS45 KPIH 260100 AAA
TAFPIH
TAF AMD
KPIH 260135Z 2602/2624 05005KT P6SM BKN006
     FM260600 04004KT 2SM BR OVC004
     FM261600 05005KT P6SM FEW004 SCT140=



000
FTUS45 KPIH 252300
TAFSUN
TAF
KSUN 252320Z 2600/2624 12006KT P6SM SCT180
     FM260300 31010KT P6SM SKC
     FM261800 15007KT P6SM SKC
      AMD LTD TO CLD VIS AND WIND 2606/2614=



000
FTUS45 KPIH 252300
TAFPIH
TAF
KPIH 252320Z 2600/2624 05005KT P6SM FEW004 SCT030
     FM260300 04004KT 2SM BR BKN004
     FM261600 05005KT P6SM FEW004 SCT140=



000
FTUS45 KPIH 252300
TAFBYI
TAF
KBYI 252320Z 2600/2624 06007KT P6SM SCT180
     FM260300 06007KT P6SM FEW004
     FM261500 07008KT P6SM SKC=



000
FTUS45 KPIH 252300
TAFIDA
TAF
KIDA 252320Z 2600/2624 36005KT 6SM BR OVC004
     FM260300 02005KT 6SM BR SCT004 OVC008
     FM261500 01005KT P6SM SCT008 SCT140=



000
FTUS45 KPIH 252100 AAB
TAFPIH
TAF AMD
KPIH 252102Z 2521/2618 VRB05KT P6SM SCT004 OVC025
     FM252300 05007KT P6SM FEW004 SCT025
     FM260800 08007KT P6SM SCT004 SCT140=



000
FTUS45 KPIH 251800 AAA
TAFPIH
TAF AMD
KPIH 251800Z 2518/2618 VRB05KT P6SM SCT004 OVC025
     FM252100 05007KT P6SM FEW004 SCT025
     FM260800 08007KT P6SM SCT004 SCT140=



000
FTUS45 KPIH 251700
TAFBYI
TAF
KBYI 251720Z 2518/2618 06007KT P6SM SCT025 SCT180
     FM260300 06010KT P6SM FEW004
     FM261500 07015KT P6SM SKC=



000
FTUS45 KPIH 251700
TAFPIH
TAF
KPIH 251720Z 2518/2618 VRB03KT P6SM BKN004 OVC025
     FM251900 VRB05KT P6SM SCT004 OVC025
     FM252100 05007KT P6SM FEW004 SCT025
     FM260800 08007KT P6SM SCT004 SCT140=



000
FTUS45 KPIH 251700
TAFIDA
TAF
KIDA 251720Z 2518/2618 VRB04KT 2SM BR OVC002
     FM252200 03007KT 4SM BR SCT003 OVC008
     FM260100 02007KT P6SM OVC008
     FM261500 05007KT P6SM SCT008 SCT140=



000
FTUS45 KPIH 251700
TAFSUN
TAF
KSUN 251720Z 2518/2618 14007KT P6SM SCT180
     FM260300 31007KT P6SM SKC=



000
FTUS45 KPIH 251600 AAD
TAFBYI
TAF AMD
KBYI 251630Z 2517/2612 VRB03KT P6SM FEW180
     FM260300 06010KT P6SM FEW004=



000
FTUS45 KPIH 251500 CCA
TAFBYI
TAF COR
KBYI 251523Z 2515/2612 VRB03KT 4SM BR SCT003 SCT150
     FM251900 25007KT P6SM FEW180
     FM260300 06010KT P6SM FEW004=



000
FTUS45 KPIH 251500 AAC
TAFBYI
TAF AMD
KBYI 251521Z 2515/2612 VRB03KT P6SM SCT003 SCT150
     FM260300 06010KT P6SM FEW004=



000
FTUS45 KPIH 251500 AAB
TAFPIH
TAF AMD
KPIH 251509Z 2515/2612 05005KT P6SM FEW003 OVC020
      TEMPO 2515/2517 VRB03KT 4SM BR BKN002 OVC020
     FM251900 20006KT P6SM SCT008 BKN015 OVC025
     FM252100 21007KT P6SM SCT025 OVC035
     FM260300 18005KT P6SM OVC025=



000
FTUS45 KPIH 251300 AAA
TAFPIH
TAF AMD
KPIH 251325Z 2513/2612 05005KT P6SM FEW004 OVC020
      TEMPO 2514/2516 VRB03KT 3SM BR SCT004 OVC020
     FM251900 20006KT P6SM SCT008 BKN015 OVC025
     FM252100 21007KT P6SM SCT025 OVC035
     FM260300 18005KT P6SM OVC025=



000
FTUS45 KPIH 251300 AAB
TAFBYI
TAF AMD
KBYI 251321Z 2513/2612 VRB03KT 5SM BR BKN035
      TEMPO 2514/2516 VRB03KT 1SM BR SCT002 OVC025
     FM251600 VRB06KT P6SM SCT025 BKN035 OVC110
     FM260600 VRB04KT P6SM OVC025=



000
FTUS45 KPIH 251200 AAA
TAFSUN
TAF AMD
KSUN 251253Z 2513/2612 31007KT P6SM BKN180
      TEMPO 2513/2516 VRB03KT 5SM BR BKN180
     FM252000 14006KT P6SM SCT120 BKN180
     FM260400 31007KT P6SM FEW180
      AMD LTD TO CLD VIS AND WIND TIL 251400=



000
FTUS45 KPIH 251200 AAA
TAFBYI
TAF AMD
KBYI 251231Z 2513/2612 VRB03KT 6SM BR SCT015 OVC035
     FM251400 VRB03KT 4SM BR OVC015
     FM251600 VRB06KT P6SM SCT025 BKN035 OVC110
     FM260600 VRB04KT P6SM OVC025=



000
FTUS45 KPIH 251100
TAFPIH
TAF
KPIH 251123Z 2512/2612 05005KT P6SM FEW004 OVC015
     FM251400 13007KT 2SM BR OVC004
     FM251900 20006KT P6SM SCT008 BKN015 OVC025
     FM252100 21007KT P6SM SCT025 OVC035
     FM260300 18005KT P6SM OVC025=



000
FTUS45 KPIH 251100
TAFBYI
TAF
KBYI 251123Z 2512/2612 VRB03KT 6SM BR FEW008 BKN015 OVC035
     FM251300 VRB03KT 4SM BR FEW004 BKN008 OVC015
     FM251600 VRB06KT P6SM SCT025 BKN035 OVC110
     FM260600 VRB04KT P6SM OVC025=



000
FTUS45 KPIH 251100
TAFIDA
TAF
KIDA 251123Z 2512/2612 35004KT 3SM BR BKN004 OVC012
     FM251400 VRB04KT 1SM BR OVC002
     FM252100 30005KT 3SM BR SCT004 OVC008
     FM260300 34006KT 6SM BR OVC008=



000
FTUS45 KPIH 251100
TAFSUN
TAF
KSUN 251123Z 2512/2612 31010KT P6SM BKN180
     FM252000 14006KT P6SM SCT120 BKN180
     FM260400 31007KT P6SM FEW180
      AMD LTD TO CLD VIS AND WIND TIL 251400=



000
FTUS45 KPIH 250900 AAA
TAFPIH
TAF AMD
KPIH 250901Z 2509/2606 05005KT P6SM FEW004 OVC015
     FM251300 13007KT 2SM BR OVC004
     FM251900 20006KT P6SM SCT008 BKN015 OVC025
     FM252100 21007KT P6SM SCT025 OVC035=



000
FTUS45 KPIH 250500 RRA
TAFBYI
TAF
KBYI 250541Z 2506/2606 VRB04KT P6SM OVC040
     FM250800 VRB03KT 6SM BR FEW008 BKN015 OVC035
     FM251200 VRB03KT 4SM BR FEW004 BKN008 OVC015
     FM251600 VRB06KT P6SM SCT025 BKN035 OVC110=



000
FTUS45 KPIH 250500 RRA
TAFSUN
TAF
KSUN 250541Z 2506/2606 31008KT P6SM SCT180
     FM250800 31010KT P6SM BKN180
     FM252000 14007KT P6SM SCT120 BKN180
     FM260400 30007KT P6SM FEW180
      AMD LTD TO CLD VIS AND WIND TIL 251400=



000
FTUS45 KPIH 250500 RRA
TAFIDA
TAF
KIDA 250541Z 2506/2606 34004KT 6SM BR FEW002 BKN007 OVC010
     FM251200 VRB04KT 1SM BR OVC002
     FM252100 30005KT 3SM BR SCT004 OVC008=



000
FTUS45 KPIH 250500 RRA
TAFPIH
TAF
KPIH 250541Z 2506/2606 VRB03KT P6SM FEW008 OVC025
     FM250800 VRB04KT 6SM BR FEW004 BKN008 OVC025
     FM251300 13007KT 2SM BR OVC004
     FM251900 20006KT P6SM SCT008 BKN015 OVC025
     FM252100 21007KT P6SM SCT025 OVC035=



000
FTUS45 KPIH 250200 AAA
TAFIDA
TAF AMD
KIDA 250213Z 2502/2524 34004KT 2SM BR OVC003
     FM250600 VRB04KT 1SM BR OVC002
     FM252100 30005KT 3SM BR SCT004 OVC008=



000
FTUS45 KPIH 250000 AAA
TAFPIH
TAF AMD
KPIH 250041Z 2501/2524 VRB03KT P6SM FEW008 OVC025
     FM250800 VRB04KT 4SM BR FEW004 BKN008 OVC025
     FM251300 13007KT 2SM BR OVC004
     FM252100 20006KT P6SM FEW004 SCT008 OVC015=



000
FTUS45 KPIH 242300
TAFPIH
TAF
KPIH 242335Z 2500/2524 03007KT 6SM BR FEW007 OVC035
     FM250200 VRB03KT 6SM BR SCT008 OVC035
     FM250800 VRB04KT 4SM BR FEW004 BKN008 OVC025
     FM251300 13007KT 2SM BR OVC004
     FM252100 20006KT P6SM FEW004 SCT008 OVC015=



000
FTUS45 KPIH 242300
TAFIDA
TAF
KIDA 242335Z 2500/2524 34004KT 3SM BR BKN004 OVC008
     FM250200 VRB03KT 6SM BR SCT004 OVC008
     FM251300 VRB04KT 1SM BR OVC002
     FM252100 30005KT 3SM BR SCT004 OVC008=



000
FTUS45 KPIH 242300
TAFBYI
TAF
KBYI 242335Z 2500/2524 VRB04KT P6SM OVC040
     FM250500 VRB03KT 4SM BR FEW008 BKN015 OVC035
     FM250700 VRB03KT 4SM BR FEW004 OVC008
     FM251600 VRB03KT 6SM BR SCT004 SCT110=



000
FTUS45 KPIH 242300
TAFSUN
TAF
KSUN 242335Z 2500/2524 14007KT P6SM SCT025 BKN050
     FM250400 31008KT P6SM FEW025 SCT080 BKN130
     FM250800 31010KT P6SM SCT100 BKN180
     FM252000 14007KT P6SM SCT120 BKN180
      AMD LTD TO CLD VIS AND WIND 2506/2514=



000
FTUS45 KPIH 242100 AAB
TAFPIH
TAF AMD
KPIH 242102Z 2421/2518 23008KT 4SM BR OVC006
      TEMPO 2421/2424 P6SM NSW FEW008 BKN025
     FM250200 VRB03KT 6SM BR SCT008 OVC015
     FM250800 VRB04KT 4SM BR OVC008
     FM251300 13007KT 2SM BR OVC004=



000
FTUS45 KPIH 242100 AAA
TAFIDA
TAF AMD
KIDA 242101Z 2421/2518 23008KT 1SM BR BKN004 OVC008
      TEMPO 2421/2424 2SM BR SCT004 OVC008
     FM250000 24010KT 4SM BR SCT004 OVC008
     FM250200 VRB03KT 6SM BR SCT004 OVC008
     FM251300 18007KT 1SM BR OVC002=



000
FTUS45 KPIH 241900 AAA
TAFPIH
TAF AMD
KPIH 241907Z 2419/2518 23008KT 4SM BR OVC004
      TEMPO 2419/2423 P6SM NSW FEW008 BKN025
     FM250200 VRB03KT 6SM BR SCT008 OVC015
     FM250800 VRB04KT 4SM BR OVC008
     FM251300 13007KT 2SM BR OVC004=



000
FTUS45 KPIH 241700
TAFPIH
TAF
KPIH 241732Z 2418/2518 23008KT P6SM FEW008 BKN025
     FM250200 VRB03KT 6SM BR SCT008 OVC015
     FM250800 VRB04KT 4SM BR OVC008
     FM251300 13007KT 2SM BR OVC004=



000
FTUS45 KPIH 241700
TAFIDA
TAF
KIDA 241732Z 2418/2518 23008KT 2SM BR BKN004 OVC008
      TEMPO 2418/2421 1SM BR
     FM242100 24010KT 4SM BR SCT004 OVC008
     FM250200 VRB03KT 6SM BR SCT004 OVC008
     FM251300 18007KT 1SM BR OVC002=



000
FTUS45 KPIH 241700
TAFBYI
TAF
KBYI 241732Z 2418/2518 25008KT 6SM BR FEW004 BKN035
     FM250000 28007KT 4SM BR FEW004 BKN015 BKN060
     FM250400 VRB03KT 4SM BR FEW004 OVC008
     FM251600 VRB03KT 6SM BR SCT004 SCT110=



000
FTUS45 KPIH 241700
TAFSUN
TAF
KSUN 241732Z 2418/2518 14007KT P6SM VCSH SCT025 BKN050
      TEMPO 2420/2423 4SM -SN BKN025 OVC050
     FM250000 31008KT P6SM SCT025 SCT080 BKN130
     FM250800 31010KT P6SM FEW110 SCT180=



000
FTUS45 KPIH 241600 AAB
TAFBYI
TAF AMD
KBYI 241641Z 2417/2512 26010KT P6SM BKN035=



000
FTUS45 KPIH 241600 CCA
TAFPIH
TAF COR
KPIH 241601Z 2416/2512 05007KT P6SM SCT004 BKN025
     FM241900 23007KT P6SM SCT008 BKN060
     FM250200 20006KT P6SM OVC030=



000
FTUS45 KPIH 241600 AAA
TAFPIH
TAF AMD
KPIH 241600Z 2416/2512 05007KT 4SM BR SCT004 BKN025
     FM241900 23007KT P6SM SCT008 BKN060
     FM250200 20006KT P6SM OVC030=



000
FTUS45 KPIH 241400 AAA
TAFBYI
TAF AMD
KBYI 241440Z 2415/2512 VRB05KT 2SM BR OVC002
      TEMPO 2415/2417 1SM BR
     FM241900 26010KT P6SM OVC015
     FM242100 26010KT P6SM BKN035=



000
FTUS45 KPIH 241400 AAA
TAFPIH
TAF AMD
KPIH 241434Z 2415/2512 05007KT 4SM BR OVC004
     FM241900 23007KT P6SM SCT008 BKN060
     FM250200 20006KT P6SM OVC030=



000
FTUS45 KPIH 241100
TAFIDA
TAF
KIDA 241140Z 2412/2512 20008KT P6SM SCT003 BKN004 OVC015
     FM241400 21007KT 2SM -SN BR BKN003 OVC008
     FM242200 23011KT P6SM VCSH OVC011
     FM250200 VRB05KT P6SM OVC009=



000
FTUS45 KPIH 241100
TAFBYI
TAF
KBYI 241140Z 2412/2512 VRB05KT 6SM BR OVC004
      TEMPO 2412/2416 1SM BR OVC003
     FM241900 26010KT P6SM OVC008
     FM250100 23006KT P6SM BKN025=



000
FTUS45 KPIH 241100
TAFPIH
TAF
KPIH 241140Z 2412/2512 18004KT P6SM FEW005 OVC011
     FM241600 24008KT P6SM VCSH FEW004 OVC007
      TEMPO 2416/2419 5SM -SN BR OVC005
     FM242100 23015KT P6SM SCT015 BKN025 BKN100
     FM250200 20006KT P6SM OVC030=



000
FTUS45 KPIH 241100
TAFSUN
TAF
KSUN 241140Z 2412/2512 31006KT P6SM VCSH SCT025 BKN035 BKN100
     FM241800 VRB06KT 5SM -SN BR SCT015 OVC035
      TEMPO 2420/2422 3SM -SN BR SCT008 BKN015
     FM250300 31008KT P6SM SCT025
      AMD LTD TO CLD VIS AND WIND TIL 241400=



000
FTUS45 KPIH 240700 AAA
TAFPIH
TAF AMD
KPIH 240725Z 2407/2506 18004KT P6SM FEW005 OVC009
     FM241400 20010KT P6SM VCSH SCT004 OVC007
     FM242100 23015KT P6SM SCT015 BKN060 BKN100=



000
FTUS45 KPIH 240700 AAA
TAFBYI
TAF AMD
KBYI 240708Z 2407/2506 VRB05KT P6SM OVC006
     FM240900 VRB05KT 6SM BR OVC004
      TEMPO 2409/2413 3SM BR OVC003
     FM242000 26010KT P6SM SCT015=



000
FTUS45 KPIH 240600 AAA
TAFIDA
TAF AMD
KIDA 240633Z 2407/2506 20008KT P6SM SCT003 BKN004 OVC015
     FM241400 21007KT 2SM -SN BR BKN003 OVC008
     FM242200 23011KT P6SM VCSH SCT010=



000
FTUS45 KPIH 240600 AAA
TAFSUN
TAF AMD
KSUN 240631Z 2407/2506 32007KT P6SM SCT002 BKN050 BKN120
     FM241200 31007KT P6SM VCSH SCT025 BKN035 BKN100
     FM241800 VRB06KT 5SM -SN BR SCT015 BKN025 OVC035
      TEMPO 2420/2423 3SM -SN BR SCT008 BKN015
     FM250300 31008KT P6SM VCSH SCT025 OVC035
      AMD LTD TO CLD VIS AND WIND TIL 241400=



000
FTUS45 KPIH 240500
TAFPIH
TAF
KPIH 240540Z 2406/2506 18010KT P6SM SCT007 OVC010
     FM241400 20010KT P6SM VCSH SCT004 OVC007
     FM242100 23015KT P6SM SCT015 BKN060 BKN100=



000
FTUS45 KPIH 240500
TAFIDA
TAF
KIDA 240540Z 2406/2506 19009KT P6SM SCT003 BKN006 OVC015
     FM241400 21007KT 2SM -SN BR BKN003 OVC008
     FM242200 23011KT P6SM VCSH SCT010=



000
FTUS45 KPIH 240500
TAFSUN
TAF
KSUN 240540Z 2406/2506 11006KT 1/4SM FZFG OVC001
     FM240700 31007KT 6SM BR SCT002 BKN050 BKN120
     FM241200 31007KT P6SM VCSH SCT025 BKN035 BKN100
     FM241800 VRB06KT 5SM -SN BR SCT015 BKN025 OVC035
      TEMPO 2420/2423 3SM -SN BR SCT008 BKN015
     FM250300 31008KT P6SM VCSH SCT025 OVC035
      AMD LTD TO CLD VIS AND WIND TIL 241400=



000
FTUS45 KPIH 240500
TAFBYI
TAF
KBYI 240540Z 2406/2506 VRB05KT 6SM BR SCT005 OVC008
     FM242000 26010KT P6SM SCT015=



000
FTUS45 KPIH 240500 AAB
TAFSUN
TAF AMD
KSUN 240500Z 2405/2424 11006KT 1/4SM FZFG OVC001
     FM240700 31007KT 6SM BR SCT002 BKN050 BKN120
     FM241200 31007KT P6SM VCSH SCT025 BKN035 BKN100
     FM241800 VRB06KT 5SM -SN BR SCT015 BKN025 OVC035
      TEMPO 2420/2423 4SM -RASN BR SCT008 BKN015
      AMD LTD TO CLD VIS AND WIND 2406/2414=



000
FTUS45 KPIH 240400 AAA
TAFIDA
TAF AMD
KIDA 240459Z 2405/2424 22007KT P6SM SCT003 BKN006 OVC015
     FM241400 23007KT 2SM -SN BR BKN003 OVC008
     FM242100 VRB06KT 6SM BR VCSH SCT010=



000
FTUS45 KPIH 240300 AAA
TAFSUN
TAF AMD
KSUN 240330Z 2404/2424 11006KT 1/4SM FZFG OVC001
     FM240500 31007KT 6SM BR SCT002 BKN050 BKN120
     FM241200 31007KT P6SM VCSH SCT025 BKN035 BKN100
     FM241800 VRB06KT 5SM -SN BR SCT015 BKN025 OVC035
      TEMPO 2420/2423 4SM -RASN BR SCT008 BKN015
      AMD LTD TO CLD VIS AND WIND 2406/2414=



000
FTUS45 KPIH 240200 AAA
TAFPIH
TAF AMD
KPIH 240241Z 2403/2424 22006KT P6SM OVC010
     FM241200 18010KT P6SM VCSH FEW003 BKN008 OVC015
     FM241800 18015KT P6SM SCT015 BKN060 BKN100=



000
FTUS45 KPIH 232300
TAFSUN
TAF
KSUN 232334Z 2400/2424 31007KT P6SM FEW130
     FM240900 31007KT P6SM BKN050 BKN120
     FM241200 31007KT P6SM VCSH SCT025 BKN035 BKN100
     FM241800 VRB06KT 5SM -SN BR SCT015 BKN025 OVC035
      TEMPO 2420/2423 4SM -RASN BR SCT008 BKN015
      AMD LTD TO CLD VIS AND WIND 2406/2414=



000
FTUS45 KPIH 232300
TAFBYI
TAF
KBYI 232334Z 2400/2424 VRB04KT P6SM SCT008 OVC014
     FM240600 VRB05KT 6SM BR OVC008
     FM242100 26006KT P6SM SCT015=



000
FTUS45 KPIH 232300
TAFIDA
TAF
KIDA 232334Z 2400/2424 22007KT P6SM FEW035
     FM240500 VRB05KT P6SM SCT008 OVC035
     FM241400 23007KT 2SM -SN BR SCT004 OVC008
     FM242100 VRB06KT 6SM BR VCSH SCT010=



000
FTUS45 KPIH 232300
TAFPIH
TAF
KPIH 232334Z 2400/2424 25010KT P6SM SCT020
     FM240900 18007KT 4SM BR SCT015 SCT060 BKN140
     FM241300 18010KT P6SM VCSH FEW003 OVC015
     FM241800 18015KT P6SM SCT015 BKN060 BKN100=



000
FTUS45 KPIH 232100 AAA
TAFBYI
TAF AMD
KBYI 232135Z 2322/2418 31007KT P6SM OVC008
     FM240000 VRB04KT P6SM SCT008 OVC015
     FM240400 VRB05KT P6SM OVC008=



000
FTUS45 KPIH 232100 AAA
TAFPIH
TAF AMD
KPIH 232128Z 2321/2418 25010KT P6SM SCT010 SCT050
      TEMPO 2321/2324 BKN010 BKN050
     FM240900 18007KT 4SM BR SCT015 SCT060 BKN140
     FM241400 18010KT P6SM FEW003 OVC015
     FM241700 18015KT P6SM SCT015 BKN060 BKN100=



    US Dept of Commerce
    National Oceanic and Atmospheric Administration
    National Weather Service
    1325 East West Highway
    Silver Spring, MD 20910
    Page Author: NWS Internet Services Team
Disclaimer
Information Quality
Credits
Glossary
Privacy Policy
Freedom of Information Act (FOIA)
About Us
Career Opportunities